Time;durP1;ratioP1;P1;durP2;ratioP2;P2;SDS_P1;SDS_P2;PMS_P1;PMS_P2;Temp;Humidity;BMP_temperature;BMP_pressure;BME280_temperature;BME280_humidity;BME280_pressure;Samples;Min_cycle;Max_cycle;Signal;HPM_P1;HPM_P2
2024/03/31 00:00:34;;;;;;;10.30;7.22;;;10.20;99.90;;;;;;5017292;28;20023;-94
2024/03/31 00:03:00;;;;;;;11.82;7.97;;;10.40;99.90;;;;;;5017915;28;20014;-94
2024/03/31 00:05:26;;;;;;;10.93;8.38;;;9.30;99.90;;;;;;5001950;28;20080;-94
2024/03/31 00:07:51;;;;;;;10.13;7.53;;;7.70;99.90;;;;;;4989190;28;20023;-94
2024/03/31 00:10:17;;;;;;;14.13;8.38;;;10.10;99.90;;;;;;4993066;28;20485;-94
2024/03/31 00:12:44;;;;;;;11.35;8.18;;;9.30;99.90;;;;;;4995842;28;20107;-94
2024/03/31 00:15:10;;;;;;;8.52;7.70;;;8.50;99.90;;;;;;4996043;28;20030;-94
2024/03/31 00:17:35;;;;;;;8.30;7.38;;;9.10;99.90;;;;;;4996373;28;20033;-94
2024/03/31 00:20:05;;;;;;;15.75;7.72;;;9.30;99.90;;;;;;4996788;28;20018;-95
2024/03/31 00:22:30;;;;;;;9.85;7.38;;;10.20;99.90;;;;;;5005527;28;20037;-94
2024/03/31 00:24:56;;;;;;;8.32;7.38;;;9.80;99.90;;;;;;5006757;28;20113;-94
2024/03/31 00:27:22;;;;;;;8.27;7.47;;;8.80;99.90;;;;;;5010667;28;20034;-94
2024/03/31 00:29:49;;;;;;;7.82;7.10;;;8.80;99.90;;;;;;5004860;28;20028;-95
2024/03/31 00:32:14;;;;;;;7.00;6.38;;;8.70;99.90;;;;;;5015866;28;20010;-94
2024/03/31 00:34:40;;;;;;;7.15;6.45;;;8.30;99.90;;;;;;5013842;28;20026;-94
2024/03/31 00:37:06;;;;;;;6.95;6.30;;;8.60;99.90;;;;;;5010162;28;20030;-95
2024/03/31 00:39:32;;;;;;;7.28;6.63;;;8.50;99.90;;;;;;5009472;28;20106;-94
2024/03/31 00:41:58;;;;;;;7.88;7.18;;;8.50;99.90;;;;;;5009060;28;20100;-95
2024/03/31 00:44:24;;;;;;;8.05;7.25;;;8.90;99.90;;;;;;5016669;28;20015;-93
2024/03/31 00:46:55;;;;;;;7.38;6.72;;;10.00;99.90;;;;;;5015273;28;20045;-94
2024/03/31 00:49:21;;;;;;;8.52;7.72;;;8.70;99.90;;;;;;5011876;28;20040;-93
2024/03/31 00:51:47;;;;;;;8.77;7.95;;;8.40;99.90;;;;;;5011608;28;20034;-94
2024/03/31 00:54:13;;;;;;;8.68;7.88;;;8.80;99.90;;;;;;4997442;28;20078;-94
2024/03/31 00:56:40;;;;;;;10.00;7.95;;;9.40;99.90;;;;;;4997928;28;20035;-94
2024/03/31 00:59:06;;;;;;;9.57;8.57;;;8.80;99.90;;;;;;4996217;28;20053;-94
2024/03/31 01:01:32;;;;;;;9.52;8.52;;;8.90;99.90;;;;;;4992176;28;20090;-95
2024/03/31 01:03:57;;;;;;;11.40;10.15;;;8.80;99.90;;;;;;4985251;28;20046;-94
2024/03/31 01:06:24;;;;;;;12.60;10.88;;;9.30;99.90;;;;;;4981755;28;20027;-94
2024/03/31 01:08:51;;;;;;;12.88;10.93;;;8.30;99.90;;;;;;4980475;28;20027;-95
2024/03/31 01:11:18;;;;;;;14.57;10.68;;;9.10;99.90;;;;;;4991452;28;20026;-94
2024/03/31 01:13:48;;;;;;;12.45;11.13;;;8.90;99.90;;;;;;5008533;28;20086;-95
2024/03/31 01:16:14;;;;;;;14.02;12.52;;;8.60;99.90;;;;;;5010154;28;20034;-93
2024/03/31 01:18:40;;;;;;;13.23;11.57;;;9.80;99.90;;;;;;5000743;28;20121;-94
2024/03/31 01:21:07;;;;;;;12.43;11.13;;;9.90;99.90;;;;;;4999656;28;20106;-93
2024/03/31 01:23:43;;;;;;;16.75;13.23;;;7.90;99.90;;;;;;4999496;28;20059;-94
2024/03/31 01:26:08;;;;;;;14.52;12.48;;;8.40;99.90;;;;;;5017102;28;20030;-94
2024/03/31 01:28:34;;;;;;;13.15;11.75;;;8.10;99.90;;;;;;5008923;28;20041;-93
2024/03/31 01:30:59;;;;;;;15.32;13.07;;;9.50;99.90;;;;;;4999886;28;20095;-94
2024/03/31 01:33:25;;;;;;;15.32;13.02;;;9.30;99.90;;;;;;5001668;28;20435;-94
2024/03/31 01:35:51;;;;;;;15.00;13.40;;;9.80;99.90;;;;;;5000494;28;20066;-94
2024/03/31 01:38:17;;;;;;;15.23;12.65;;;8.70;99.90;;;;;;4999366;28;20033;-94
2024/03/31 01:40:42;;;;;;;17.23;14.80;;;9.40;99.90;;;;;;5000918;28;20033;-94
2024/03/31 01:43:08;;;;;;;18.30;13.63;;;9.60;99.90;;;;;;5004789;28;20602;-95
2024/03/31 01:45:34;;;;;;;18.45;14.90;;;8.80;99.90;;;;;;5001892;28;20089;-94
2024/03/31 01:47:59;;;;;;;17.95;14.48;;;8.40;99.90;;;;;;5001503;28;20033;-95
2024/03/31 01:50:25;;;;;;;18.15;14.57;;;9.10;99.90;;;;;;5014385;28;20050;-94
2024/03/31 01:52:51;;;;;;;16.92;13.35;;;9.30;99.90;;;;;;5018061;28;20105;-94
2024/03/31 01:55:17;;;;;;;18.27;14.13;;;8.80;99.90;;;;;;4987837;28;20042;-93
2024/03/31 01:57:42;;;;;;;17.52;14.20;;;10.60;99.90;;;;;;4998884;28;20109;-93
2024/03/31 02:00:09;;;;;;;17.55;13.75;;;9.30;99.90;;;;;;4998501;28;20470;-94
2024/03/31 02:02:34;;;;;;;15.05;12.88;;;8.80;99.90;;;;;;5011704;28;20036;-94
2024/03/31 02:05:00;;;;;;;14.60;13.02;;;8.40;99.90;;;;;;5003075;28;20062;-94
2024/03/31 02:07:25;;;;;;;17.27;13.80;;;8.60;99.90;;;;;;5000169;28;20029;-94
2024/03/31 02:09:51;;;;;;;15.27;13.68;;;8.80;99.90;;;;;;4999913;28;20027;-94
2024/03/31 02:12:18;;;;;;;14.68;12.52;;;8.10;99.90;;;;;;4999247;28;20052;-93
2024/03/31 02:14:43;;;;;;;17.52;13.25;;;8.90;99.90;;;;;;4999163;28;20022;-94
2024/03/31 02:17:09;;;;;;;16.52;13.27;;;9.80;99.90;;;;;;4997683;28;20137;-95
2024/03/31 02:19:34;;;;;;;13.70;12.13;;;10.70;99.90;;;;;;5015251;28;20039;-95
2024/03/31 02:22:00;;;;;;;14.10;12.60;;;10.70;99.90;;;;;;5016251;28;20031;-94
2024/03/31 02:24:26;;;;;;;15.77;13.10;;;10.80;99.90;;;;;;5003032;28;20041;-94
2024/03/31 02:26:51;;;;;;;13.48;12.10;;;11.10;99.90;;;;;;4999492;28;20033;-93
2024/03/31 02:29:18;;;;;;;13.15;11.52;;;11.00;99.90;;;;;;4998402;28;20080;-95
2024/03/31 02:31:44;;;;;;;15.20;13.07;;;10.70;99.90;;;;;;4997382;28;20120;-95
2024/03/31 02:34:09;;;;;;;12.82;11.52;;;9.40;99.90;;;;;;4998346;28;20054;-95
2024/03/31 02:36:35;;;;;;;15.05;13.25;;;9.30;99.90;;;;;;4986668;28;20475;-94
2024/03/31 02:39:01;;;;;;;13.32;11.93;;;9.10;99.90;;;;;;4990664;28;20085;-95
2024/03/31 02:41:26;;;;;;;14.10;12.48;;;9.80;99.90;;;;;;4998464;28;20027;-94
2024/03/31 02:43:58;;;;;;;18.42;12.68;;;11.20;99.90;;;;;;4998267;28;20022;-95
2024/03/31 02:46:23;;;;;;;12.43;11.23;;;9.50;99.90;;;;;;4998063;28;20029;-94
2024/03/31 02:48:52;;;;;;;14.00;12.60;;;11.00;99.90;;;;;;5000047;28;20023;-95
2024/03/31 02:51:21;;;;;;;14.98;12.98;;;9.70;99.90;;;;;;5016644;28;20035;-94
2024/03/31 02:53:46;;;;;;;15.75;12.07;;;10.90;99.90;;;;;;5004958;28;20049;-95
2024/03/31 02:56:12;;;;;;;15.10;12.90;;;10.40;99.90;;;;;;4998707;28;20038;-94
2024/03/31 02:58:37;;;;;;;14.90;12.48;;;10.30;99.90;;;;;;4989594;28;20027;-95
2024/03/31 03:01:04;;;;;;;14.05;11.93;;;10.30;99.90;;;;;;4978613;28;20031;-94
2024/03/31 03:03:29;;;;;;;14.32;12.02;;;9.40;99.90;;;;;;4977714;28;20102;-94
2024/03/31 03:05:55;;;;;;;14.27;12.80;;;11.00;99.90;;;;;;4977489;28;20102;-94
2024/03/31 03:08:21;;;;;;;14.00;12.52;;;9.20;99.90;;;;;;4983818;28;20042;-95
2024/03/31 03:10:57;;;;;;;14.20;12.77;;;9.70;99.90;;;;;;4987661;28;20023;-95
2024/03/31 03:13:24;;;;;;;14.63;13.07;;;9.70;99.90;;;;;;4991820;28;20007;-94
2024/03/31 03:15:50;;;;;;;14.98;12.35;;;10.00;99.90;;;;;;4993286;28;20039;-94
2024/03/31 03:18:20;;;;;;;14.18;12.13;;;11.20;99.90;;;;;;5000188;28;20057;-94
2024/03/31 03:20:45;;;;;;;14.60;12.77;;;9.10;99.90;;;;;;5013131;28;20026;-92
2024/03/31 03:23:11;;;;;;;13.52;12.18;;;9.00;99.90;;;;;;5000366;28;20069;-93
2024/03/31 03:25:37;;;;;;;13.70;12.30;;;10.70;99.90;;;;;;4997722;28;20041;-94
2024/03/31 03:28:03;;;;;;;13.88;12.48;;;10.90;99.90;;;;;;4997264;28;20022;-93
2024/03/31 03:30:38;;;;;;;14.68;12.18;;;11.00;99.90;;;;;;4996653;28;20537;-94
2024/03/31 03:33:04;;;;;;;16.98;11.88;;;11.00;99.90;;;;;;4997023;28;20018;-94
2024/03/31 03:35:39;;;;;;;12.15;11.05;;;8.80;99.90;;;;;;4997186;28;20497;-94
2024/03/31 03:38:04;;;;;;;15.60;11.80;;;9.40;99.90;;;;;;4990134;28;20027;-95
2024/03/31 03:40:30;;;;;;;13.07;11.55;;;11.10;99.90;;;;;;4977076;28;20439;-94
2024/03/31 03:42:55;;;;;;;12.05;10.75;;;10.80;99.90;;;;;;4977442;28;20035;-94
2024/03/31 03:45:21;;;;;;;12.23;11.07;;;8.70;99.90;;;;;;4976628;28;20026;-92
2024/03/31 03:47:46;;;;;;;11.57;10.35;;;9.20;99.90;;;;;;4977068;28;20059;-94
2024/03/31 03:50:12;;;;;;;11.45;10.20;;;10.40;99.90;;;;;;4988522;28;20046;-94
2024/03/31 03:52:38;;;;;;;11.30;10.15;;;9.40;99.90;;;;;;4987554;28;20019;-92
2024/03/31 03:55:04;;;;;;;12.15;10.85;;;10.80;99.90;;;;;;4978643;28;20031;-93
2024/03/31 03:57:30;;;;;;;10.90;9.80;;;9.50;99.90;;;;;;4978891;28;20062;-93
2024/03/31 04:00:01;;;;;;;10.23;9.07;;;11.10;99.90;;;;;;4982490;28;20519;-94
2024/03/31 04:02:26;;;;;;;9.25;8.45;;;9.50;99.90;;;;;;4997725;28;20030;-93
2024/03/31 04:04:52;;;;;;;9.23;8.32;;;11.00;99.90;;;;;;4996984;28;20033;-93
2024/03/31 04:07:17;;;;;;;9.05;8.10;;;10.90;99.90;;;;;;5009747;28;20042;-94
2024/03/31 04:09:43;;;;;;;7.88;7.10;;;11.00;99.90;;;;;;5007922;28;20026;-94
2024/03/31 04:12:09;;;;;;;7.32;6.72;;;9.00;99.90;;;;;;4999689;28;20030;-93
2024/03/31 04:14:34;;;;;;;6.95;6.35;;;9.40;99.90;;;;;;4997547;28;20046;-92
2024/03/31 04:17:00;;;;;;;7.40;6.68;;;10.90;99.90;;;;;;4997038;28;20034;-93
2024/03/31 04:19:32;;;;;;;6.03;5.50;;;9.30;99.90;;;;;;4995360;28;20048;-92
2024/03/31 04:21:58;;;;;;;6.00;5.50;;;9.20;99.90;;;;;;4977441;28;20027;-94
2024/03/31 04:24:23;;;;;;;5.60;5.10;;;10.80;99.90;;;;;;4994382;28;20045;-92
2024/03/31 04:26:49;;;;;;;7.00;5.53;;;8.70;99.90;;;;;;4995422;28;20031;-93
2024/03/31 04:29:15;;;;;;;6.00;5.40;;;9.30;99.90;;;;;;4996669;28;20046;-94
2024/03/31 04:31:59;;;;;;;5.20;4.60;;;10.80;99.90;;;;;;4995143;28;20100;-93
2024/03/31 04:34:28;;;;;;;5.20;4.70;;;10.20;99.90;;;;;;4994968;28;20113;-93
2024/03/31 04:36:55;;;;;;;6.15;5.20;;;8.70;99.90;;;;;;4997632;28;20034;-92
2024/03/31 04:39:21;;;;;;;8.45;5.50;;;8.80;99.90;;;;;;5002741;28;20030;-94
2024/03/31 04:41:46;;;;;;;5.15;4.65;;;9.10;99.90;;;;;;4995144;28;20034;-93
2024/03/31 04:44:13;;;;;;;5.18;4.68;;;10.70;99.90;;;;;;5004955;28;20026;-93
2024/03/31 04:46:39;;;;;;;5.32;4.80;;;9.40;99.90;;;;;;5009000;28;20034;-95
2024/03/31 04:49:07;;;;;;;5.40;4.70;;;8.40;99.90;;;;;;5006509;28;20053;-95
2024/03/31 04:51:33;;;;;;;5.15;4.72;;;9.50;99.90;;;;;;4996554;28;20064;-95
2024/03/31 04:53:59;;;;;;;5.95;5.43;;;10.60;99.90;;;;;;4996966;28;20023;-94
2024/03/31 04:56:24;;;;;;;6.68;5.45;;;10.00;99.90;;;;;;4996137;28;20058;-95
2024/03/31 04:58:59;;;;;;;5.65;5.10;;;10.70;99.90;;;;;;4996092;28;20542;-93
2024/03/31 05:01:25;;;;;;;7.32;5.22;;;8.70;99.90;;;;;;5003040;28;20104;-94
2024/03/31 05:03:51;;;;;;;5.78;5.20;;;7.90;99.90;;;;;;4996653;28;20026;-93
2024/03/31 05:06:16;;;;;;;6.03;5.53;;;8.50;99.90;;;;;;4982597;28;20023;-95
2024/03/31 05:08:42;;;;;;;5.80;4.70;;;10.10;99.90;;;;;;4984334;28;20075;-96
2024/03/31 05:11:08;;;;;;;6.07;5.18;;;9.00;99.90;;;;;;4994035;28;20018;-94
2024/03/31 05:13:33;;;;;;;5.97;5.38;;;10.20;99.90;;;;;;4995249;28;20038;-94
2024/03/31 05:16:08;;;;;;;6.28;5.50;;;9.00;99.90;;;;;;4985210;28;20042;-93
2024/03/31 05:18:43;;;;;;;5.47;4.82;;;9.60;99.90;;;;;;4979388;28;20027;-95
2024/03/31 05:21:09;;;;;;;6.38;5.78;;;9.20;99.90;;;;;;4977960;28;20039;-94
2024/03/31 05:23:37;;;;;;;6.47;5.72;;;10.70;99.90;;;;;;4981349;28;20352;-94
2024/03/31 05:26:10;;;;;;;6.32;5.68;;;10.70;99.90;;;;;;4997307;28;20022;-94
2024/03/31 05:28:36;;;;;;;7.75;5.57;;;11.00;99.90;;;;;;4997484;28;20026;-94
2024/03/31 05:31:03;;;;;;;7.68;5.35;;;9.80;99.90;;;;;;4995555;28;20034;-95
2024/03/31 05:33:29;;;;;;;6.03;5.43;;;9.10;99.90;;;;;;4978889;28;20039;-94
2024/03/31 05:35:55;;;;;;;6.63;5.38;;;10.60;99.90;;;;;;4995365;28;20058;-94
2024/03/31 05:38:20;;;;;;;6.97;5.88;;;9.30;99.90;;;;;;4994805;28;20046;-95
2024/03/31 05:40:49;;;;;;;6.05;5.45;;;10.60;99.90;;;;;;4995330;28;20033;-94
2024/03/31 05:43:15;;;;;;;7.22;6.50;;;9.30;99.90;;;;;;4994967;28;20027;-94
2024/03/31 05:45:41;;;;;;;6.47;5.88;;;10.10;99.90;;;;;;4994832;28;20022;-94
2024/03/31 05:48:07;;;;;;;7.65;6.32;;;10.80;99.90;;;;;;4992422;28;20066;-95
2024/03/31 05:50:40;;;;;;;9.65;6.97;;;9.60;99.90;;;;;;4995063;28;20070;-94
2024/03/31 05:53:06;;;;;;;7.55;6.40;;;10.80;99.90;;;;;;4995978;28;20033;-93
2024/03/31 05:55:31;;;;;;;8.48;6.75;;;10.80;99.90;;;;;;5007424;28;20054;-94
2024/03/31 05:58:13;;;;;;;9.02;6.97;;;10.70;99.90;;;;;;5013343;28;20027;-94
2024/03/31 06:00:39;;;;;;;7.60;6.90;;;10.60;99.90;;;;;;4997507;28;20037;-95
2024/03/31 06:03:07;;;;;;;9.98;6.78;;;10.70;99.90;;;;;;4998904;28;20113;-94
2024/03/31 06:05:33;;;;;;;8.32;6.78;;;9.40;99.90;;;;;;4998138;28;20022;-94
2024/03/31 06:07:59;;;;;;;9.18;6.75;;;10.60;99.90;;;;;;4995178;28;20049;-94
2024/03/31 06:10:24;;;;;;;10.80;6.63;;;10.50;99.90;;;;;;5000051;28;20061;-95
2024/03/31 06:12:50;;;;;;;7.63;6.60;;;10.70;99.90;;;;;;4998765;28;20026;-95
2024/03/31 06:15:16;;;;;;;7.65;6.93;;;9.30;99.90;;;;;;4998920;28;20027;-94
2024/03/31 06:17:52;;;;;;;7.95;6.80;;;9.10;99.90;;;;;;4999176;28;20033;-94
2024/03/31 06:20:18;;;;;;;7.55;6.85;;;8.80;99.90;;;;;;4999278;28;20026;-95
2024/03/31 06:22:43;;;;;;;6.97;6.28;;;8.80;99.90;;;;;;4990168;28;20537;-93
2024/03/31 06:25:09;;;;;;;8.52;7.13;;;9.20;99.90;;;;;;5003518;28;20509;-94
2024/03/31 06:27:35;;;;;;;12.95;7.38;;;9.00;99.90;;;;;;4985652;28;20030;-93
2024/03/31 06:30:02;;;;;;;8.05;7.25;;;8.50;99.90;;;;;;4986521;28;20033;-94
2024/03/31 06:32:28;;;;;;;7.85;7.05;;;9.60;99.90;;;;;;5013107;28;20039;-90
2024/03/31 06:34:56;;;;;;;7.07;6.47;;;8.80;99.90;;;;;;4997828;28;20466;-93
2024/03/31 06:37:21;;;;;;;9.02;8.00;;;9.00;99.90;;;;;;4996496;28;20038;-88
2024/03/31 06:39:48;;;;;;;9.73;8.00;;;9.90;99.90;;;;;;4996842;28;20486;-87
2024/03/31 06:42:15;;;;;;;12.05;7.70;;;10.30;99.90;;;;;;4989553;28;20085;-86
2024/03/31 06:44:41;;;;;;;8.55;7.75;;;9.10;99.90;;;;;;4992876;28;20821;-91
2024/03/31 06:47:06;;;;;;;8.25;7.45;;;8.90;99.90;;;;;;4991965;28;20027;-90
2024/03/31 06:49:32;;;;;;;8.85;7.97;;;9.20;99.90;;;;;;5003104;28;20046;-91
2024/03/31 06:52:16;;;;;;;10.13;9.13;;;9.70;99.90;;;;;;4998382;28;20335;-90
2024/03/31 06:54:41;;;;;;;8.60;7.70;;;9.10;99.90;;;;;;4992641;28;20041;-90
2024/03/31 06:57:07;;;;;;;11.35;8.55;;;9.20;99.90;;;;;;4995434;28;20038;-91
2024/03/31 06:59:32;;;;;;;9.65;8.75;;;9.20;99.90;;;;;;4995495;28;20018;-92
2024/03/31 07:01:58;;;;;;;10.80;8.77;;;10.60;99.90;;;;;;4990088;28;20478;-92
2024/03/31 07:04:23;;;;;;;9.30;8.40;;;9.30;99.90;;;;;;4991636;28;20045;-92
2024/03/31 07:06:49;;;;;;;11.77;9.13;;;9.30;99.90;;;;;;4992453;28;20048;-92
2024/03/31 07:09:16;;;;;;;11.45;9.18;;;9.30;99.90;;;;;;4990257;28;20107;-93
2024/03/31 07:11:42;;;;;;;10.43;8.77;;;9.30;99.90;;;;;;4994555;28;20030;-94
2024/03/31 07:14:07;;;;;;;10.07;9.00;;;9.40;99.90;;;;;;5007511;28;20017;-94
2024/03/31 07:16:35;;;;;;;12.10;9.18;;;9.40;99.90;;;;;;5009470;28;20041;-94
2024/03/31 07:19:00;;;;;;;10.55;9.52;;;9.40;99.90;;;;;;4999375;28;20022;-93
2024/03/31 07:21:26;;;;;;;13.18;10.52;;;9.80;99.90;;;;;;4989778;28;20034;-92
2024/03/31 07:23:52;;;;;;;10.88;9.73;;;9.40;99.90;;;;;;4976915;28;20077;-92
2024/03/31 07:26:17;;;;;;;11.48;10.27;;;9.40;99.90;;;;;;4977497;28;20171;-93
2024/03/31 07:28:43;;;;;;;13.43;10.85;;;9.50;99.90;;;;;;4984337;28;20375;-92
2024/03/31 07:31:08;;;;;;;11.73;10.32;;;9.40;99.90;;;;;;4984662;28;20113;-92
2024/03/31 07:33:34;;;;;;;12.80;10.85;;;9.50;99.90;;;;;;4992228;28;20033;-94
2024/03/31 07:35:59;;;;;;;15.15;11.77;;;11.30;99.90;;;;;;4995871;28;20042;-93
2024/03/31 07:38:25;;;;;;;14.95;11.90;;;10.70;99.90;;;;;;4997854;28;20019;-93
2024/03/31 07:40:52;;;;;;;13.13;11.13;;;9.60;99.90;;;;;;4995578;28;20506;-96
2024/03/31 07:43:25;;;;;;;12.93;11.43;;;9.50;99.90;;;;;;5013717;28;20011;-94
2024/03/31 07:46:05;;;;;;;16.65;12.65;;;11.40;99.90;;;;;;5000186;28;20037;-92
2024/03/31 07:48:31;;;;;;;;;;;11.00;99.90;;;;;;4996608;28;20026;-89
2024/03/31 07:50:56;;;;;;;15.23;13.15;;;11.10;99.90;;;;;;4998842;28;19920;-93
2024/03/31 07:53:22;;;;;;;17.23;13.52;;;9.30;99.90;;;;;;5010877;28;20065;-91
2024/03/31 07:55:57;;;;;;;17.30;13.25;;;9.20;99.90;;;;;;4995943;28;20031;-95
2024/03/31 07:58:37;;;;;;;16.13;14.43;;;11.40;99.90;;;;;;5000091;28;20470;-93
2024/03/31 08:01:03;;;;;;;17.17;14.47;;;11.40;99.90;;;;;;4996989;28;20026;-93
2024/03/31 08:03:35;;;;;;;19.00;15.07;;;9.30;99.90;;;;;;5000582;28;20031;-95
2024/03/31 08:06:03;;;;;;;22.73;15.80;;;8.50;99.90;;;;;;4998843;28;20501;-89
2024/03/31 08:08:31;;;;;;;18.77;15.07;;;9.50;99.90;;;;;;4991394;28;20534;-90
2024/03/31 08:10:56;;;;;;;20.15;16.02;;;9.90;99.90;;;;;;4985819;28;20031;-91
2024/03/31 08:13:22;;;;;;;23.83;16.60;;;9.90;99.90;;;;;;4993998;28;20018;-95
2024/03/31 08:15:57;;;;;;;23.27;16.98;;;10.00;99.90;;;;;;5008143;28;20038;-93
2024/03/31 08:18:25;;;;;;;21.95;16.67;;;10.00;99.90;;;;;;4984440;28;20085;-96
2024/03/31 08:20:51;;;;;;;22.15;16.98;;;10.40;99.90;;;;;;4998022;28;20053;-91
2024/03/31 08:23:16;;;;;;;22.55;16.13;;;10.00;99.90;;;;;;4995938;28;20340;-93
2024/03/31 08:25:42;;;;;;;19.77;16.58;;;10.10;99.90;;;;;;5013013;23;20055;-93
2024/03/31 08:28:07;;;;;;;21.42;18.55;;;9.80;99.90;;;;;;4994486;28;20053;-90
2024/03/31 08:30:33;;;;;;;27.55;18.63;;;10.10;99.90;;;;;;4999115;28;20034;-94
2024/03/31 08:35:34;;;;;;;27.80;18.73;;;10.20;99.90;;;;;;5454801;23;20050;-92
2024/03/31 08:38:00;;;;;;;26.67;19.02;;;10.30;99.90;;;;;;4996990;28;20496;-92
2024/03/31 08:40:30;;;;;;;28.42;19.48;;;10.30;99.90;;;;;;4993974;28;20111;-88
2024/03/31 08:43:01;;;;;;;;;;;10.40;99.90;;;;;;4995006;28;20570;-93
2024/03/31 08:45:29;;;;;;;26.00;20.30;;;10.40;99.90;;;;;;4992392;28;19917;-93
2024/03/31 08:47:58;;;;;;;25.48;19.90;;;10.50;99.90;;;;;;4993350;28;20050;-90
2024/03/31 08:50:24;;;;;;;25.90;20.63;;;10.50;99.90;;;;;;5001547;28;20046;-92
2024/03/31 08:52:50;;;;;;;28.58;20.23;;;10.50;99.90;;;;;;5006676;28;20034;-92
2024/03/31 08:55:16;;;;;;;28.63;20.02;;;10.60;99.90;;;;;;4998538;28;20037;-93
2024/03/31 08:57:42;;;;;;;24.20;19.45;;;10.50;99.90;;;;;;5008236;28;20070;-92
2024/03/31 09:00:08;;;;;;;25.85;21.25;;;10.60;99.90;;;;;;5018654;28;20021;-94
2024/03/31 09:02:34;;;;;;;28.42;21.33;;;10.60;99.90;;;;;;5003365;28;20085;-91
2024/03/31 09:05:00;;;;;;;34.35;23.08;;;10.30;99.90;;;;;;4992568;28;20038;-86
2024/03/31 09:07:26;;;;;;;28.65;21.63;;;11.50;99.90;;;;;;4987564;28;20023;-89
2024/03/31 09:09:52;;;;;;;25.60;22.10;;;10.70;99.90;;;;;;4991411;28;20081;-85
2024/03/31 09:12:18;;;;;;;29.00;22.00;;;10.70;99.90;;;;;;5000006;28;20030;-86
2024/03/31 09:14:43;;;;;;;31.90;22.58;;;10.70;99.90;;;;;;4996363;28;20029;-89
2024/03/31 09:17:10;;;;;;;32.78;25.30;;;10.80;99.90;;;;;;4996021;28;20092;-90
2024/03/31 09:22:27;;;;;;;36.92;26.80;;;11.00;99.90;;;;;;5518583;23;20055;-90
2024/03/31 09:24:59;;;;;;;35.95;28.02;;;11.10;99.90;;;;;;4993994;28;20018;-91
2024/03/31 09:27:28;;;;;;;32.28;26.50;;;13.00;99.90;;;;;;5000338;28;20015;-90
2024/03/31 09:29:57;;;;;;;32.95;26.90;;;12.20;99.90;;;;;;5008734;28;20128;-93
2024/03/31 09:32:23;;;;;;;38.38;28.73;;;12.60;99.90;;;;;;5174316;23;20449;-96
2024/03/31 09:34:51;;;;;;;35.10;26.50;;;11.50;99.90;;;;;;5017090;28;20029;-91
2024/03/31 09:37:17;;;;;;;34.35;26.00;;;11.50;99.90;;;;;;5021665;28;20054;-95
2024/03/31 09:39:44;;;;;;;38.70;27.15;;;11.40;99.90;;;;;;5016779;28;20030;-93
2024/03/31 09:42:20;;;;;;;37.25;27.05;;;12.70;99.90;;;;;;5018628;28;20147;-92
2024/03/31 09:44:46;;;;;;;32.33;25.50;;;11.20;99.90;;;;;;5126074;23;20069;-90
2024/03/31 09:47:22;;;;;;;32.75;26.05;;;11.60;99.90;;;;;;5007412;28;20109;-93
2024/03/31 09:49:55;;;;;;;34.45;24.52;;;11.70;99.90;;;;;;5017922;28;20030;-91
2024/03/31 09:52:28;;;;;;;37.95;26.05;;;11.70;99.90;;;;;;5019931;28;20030;-90
2024/03/31 09:55:01;;;;;;;31.02;25.05;;;11.90;99.90;;;;;;5019439;28;20026;-92
2024/03/31 09:57:32;;;;;;;35.75;24.92;;;11.70;99.90;;;;;;5026284;28;20420;-90
2024/03/31 10:00:01;;;;;;;30.65;26.55;;;11.80;99.90;;;;;;5026041;28;20014;-92
2024/03/31 10:02:27;;;;;;;31.52;24.35;;;11.90;99.90;;;;;;5020602;28;20010;-92
2024/03/31 10:05:02;;;;;;;31.40;23.73;;;11.90;99.90;;;;;;5020915;28;20513;-91
2024/03/31 10:07:29;;;;;;;31.63;23.25;;;11.90;99.90;;;;;;5010625;28;20377;-93
2024/03/31 10:09:55;;;;;;;35.10;23.17;;;12.00;99.90;;;;;;5008001;28;20032;-92
2024/03/31 10:12:24;;;;;;;34.83;23.20;;;12.40;99.90;;;;;;5000227;28;20474;-89
2024/03/31 10:14:51;;;;;;;30.17;23.05;;;11.30;99.90;;;;;;5011992;28;20080;-90
2024/03/31 10:17:17;;;;;;;29.83;21.63;;;13.10;99.90;;;;;;5006741;28;20096;-93
2024/03/31 10:19:46;;;;;;;29.98;22.48;;;12.40;99.90;;;;;;4998130;28;21751;-93
2024/03/31 10:22:14;;;;;;;26.90;21.15;;;12.50;99.90;;;;;;5024428;28;20114;-93
2024/03/31 10:24:40;;;;;;;28.23;19.23;;;12.50;99.90;;;;;;5014177;28;20500;-94
2024/03/31 10:27:07;;;;;;;28.10;18.92;;;12.70;99.90;;;;;;5025668;28;20052;-92
2024/03/31 10:29:34;;;;;;;26.35;18.50;;;12.70;99.90;;;;;;5014527;28;20026;-90
2024/03/31 10:31:59;;;;;;;24.50;19.08;;;12.70;99.90;;;;;;5019107;28;20068;-90
2024/03/31 10:34:25;;;;;;;28.00;19.35;;;12.70;99.90;;;;;;5023445;28;20022;-93
2024/03/31 10:36:55;;;;;;;25.45;20.17;;;12.70;99.90;;;;;;5018350;28;20065;-93
2024/03/31 10:39:23;;;;;;;29.00;21.05;;;12.80;99.90;;;;;;5008498;28;20021;-94
2024/03/31 10:41:49;;;;;;;26.55;17.00;;;12.80;99.90;;;;;;5010452;28;20093;-92
2024/03/31 10:44:16;;;;;;;23.27;17.02;;;12.80;99.90;;;;;;5008251;28;20038;-89
2024/03/31 10:46:45;;;;;;;25.30;17.20;;;12.80;99.90;;;;;;5011144;28;20034;-94
2024/03/31 10:49:10;;;;;;;26.25;17.17;;;13.20;99.90;;;;;;5007000;28;20382;-93
2024/03/31 10:51:41;;;;;;;24.13;17.23;;;12.80;99.90;;;;;;5014346;28;20033;-92
2024/03/31 10:54:25;;;;;;;;;;;12.80;99.90;;;;;;5010287;28;20494;-94
2024/03/31 10:56:58;;;;;;;24.75;14.82;;;12.90;99.90;;;;;;5005394;28;19928;-91
2024/03/31 10:59:26;;;;;;;16.80;14.27;;;13.00;99.90;;;;;;5009634;28;20057;-94
2024/03/31 11:01:52;;;;;;;23.52;13.73;;;13.00;99.90;;;;;;5010712;28;20030;-90
2024/03/31 11:04:18;;;;;;;18.67;12.43;;;13.10;99.90;;;;;;5007983;28;20493;-90
2024/03/31 11:06:45;;;;;;;21.52;11.82;;;13.10;99.90;;;;;;5022413;28;20029;-93
2024/03/31 11:09:10;;;;;;;15.98;10.52;;;13.20;99.90;;;;;;5018477;28;20026;-91
2024/03/31 11:11:43;;;;;;;14.18;12.05;;;14.00;99.90;;;;;;5014879;28;20053;-92
2024/03/31 11:14:14;;;;;;;13.50;10.40;;;13.40;99.90;;;;;;5022581;28;20046;-95
2024/03/31 11:16:40;;;;;;;22.38;10.10;;;12.60;99.90;;;;;;5023274;28;20038;-92
2024/03/31 11:19:07;;;;;;;17.50;9.98;;;13.00;99.90;;;;;;5017363;28;20029;-93
2024/03/31 11:21:34;;;;;;;19.75;9.20;;;14.70;99.90;;;;;;5011236;28;20025;-93
2024/03/31 11:24:04;;;;;;;18.30;10.32;;;14.90;99.90;;;;;;5008866;28;20022;-91
2024/03/31 11:26:30;;;;;;;16.25;8.75;;;13.80;99.90;;;;;;5006247;28;20494;-92
2024/03/31 11:29:16;;;;;;;10.90;9.02;;;14.10;99.90;;;;;;5005195;28;20504;-91
2024/03/31 11:31:43;;;;;;;15.80;9.02;;;13.90;99.90;;;;;;5002330;28;20510;-93
2024/03/31 11:34:10;;;;;;;14.90;7.82;;;14.30;99.90;;;;;;5007307;28;20121;-93
2024/03/31 11:36:36;;;;;;;16.90;8.25;;;14.80;99.90;;;;;;5011004;28;20040;-92
2024/03/31 11:39:01;;;;;;;11.40;7.90;;;14.80;99.90;;;;;;5011028;28;20041;-93
2024/03/31 11:41:27;;;;;;;15.68;7.72;;;14.20;99.90;;;;;;5014932;28;20469;-93
2024/03/31 11:43:53;;;;;;;15.15;7.57;;;15.40;99.90;;;;;;5017563;28;20061;-93
2024/03/31 11:46:19;;;;;;;17.90;7.55;;;14.30;99.90;;;;;;5009500;28;20058;-94
2024/03/31 11:48:45;;;;;;;13.43;7.15;;;14.40;99.90;;;;;;5021174;28;20169;-93
2024/03/31 11:51:12;;;;;;;13.07;6.38;;;13.50;99.90;;;;;;5020179;28;20025;-94
2024/03/31 11:53:37;;;;;;;11.07;7.28;;;14.80;99.90;;;;;;5033370;28;20021;-92
2024/03/31 11:56:19;;;;;;;15.98;8.10;;;15.70;99.90;;;;;;5017740;28;20049;-93
2024/03/31 11:58:45;;;;;;;15.98;7.55;;;15.30;99.90;;;;;;5017735;28;20382;-93
2024/03/31 12:01:18;;;;;;;9.02;4.88;;;16.00;99.90;;;;;;5016227;28;20026;-93
2024/03/31 12:03:52;;;;;;;14.75;5.97;;;15.90;99.90;;;;;;4985608;28;20062;-93
2024/03/31 12:06:18;;;;;;;17.25;6.53;;;16.00;99.90;;;;;;5019538;28;20042;-94
2024/03/31 12:08:45;;;;;;;15.38;6.38;;;16.10;99.90;;;;;;5032662;28;20033;-93
2024/03/31 12:11:10;;;;;;;13.40;6.20;;;14.80;99.90;;;;;;5008821;28;20088;-93
2024/03/31 12:13:37;;;;;;;14.82;6.70;;;15.20;99.90;;;;;;5009628;28;20026;-94
2024/03/31 12:16:04;;;;;;;15.40;6.03;;;15.30;99.90;;;;;;4999723;28;20038;-93
2024/03/31 12:18:36;;;;;;;11.55;7.00;;;14.70;99.90;;;;;;5019816;28;20080;-92
2024/03/31 12:21:34;;;;;;;13.60;6.20;;;15.50;99.90;;;;;;5015031;28;20109;-92
2024/03/31 12:24:09;;;;;;;16.02;7.78;;;16.20;99.90;;;;;;4961521;28;20030;-92
2024/03/31 12:26:36;;;;;;;10.13;6.57;;;15.90;99.90;;;;;;4996676;28;20030;-93
2024/03/31 12:29:05;;;;;;;14.20;7.85;;;14.00;99.90;;;;;;5002421;28;20057;-92
2024/03/31 12:31:32;;;;;;;14.90;7.13;;;14.50;99.90;;;;;;5003898;28;20071;-91
2024/03/31 12:34:03;;;;;;;11.73;6.43;;;14.60;99.90;;;;;;5014192;28;20022;-94
2024/03/31 12:36:29;;;;;;;12.48;6.90;;;14.70;99.90;;;;;;4999124;28;20044;-93
2024/03/31 12:38:56;;;;;;;14.45;5.78;;;14.60;99.90;;;;;;5010443;28;20383;-91
2024/03/31 12:41:22;;;;;;;11.88;5.45;;;15.90;99.90;;;;;;5007957;28;20088;-92
2024/03/31 12:43:47;;;;;;;12.20;3.58;;;14.70;99.90;;;;;;5011234;28;20138;-94
2024/03/31 12:46:14;;;;;;;7.22;3.50;;;13.50;99.90;;;;;;5016059;28;20057;-91